createdAt,value
2022-08-27T00:01:22.522Z,99.90
2022-08-27T00:03:50.193Z,99.90
2022-08-27T00:06:19.186Z,99.90
2022-08-27T00:08:48.149Z,99.90
2022-08-27T00:11:17.365Z,99.90
2022-08-27T00:13:45.659Z,99.90
2022-08-27T00:16:15.750Z,99.90
2022-08-27T00:18:47.899Z,99.90
2022-08-27T00:21:17.435Z,99.90
2022-08-27T00:23:44.411Z,99.90
2022-08-27T00:26:11.469Z,99.90
2022-08-27T00:28:38.739Z,99.90
2022-08-27T00:31:05.917Z,99.90
2022-08-27T00:33:33.282Z,99.90
2022-08-27T00:36:00.725Z,99.90
2022-08-27T00:38:27.751Z,99.90
2022-08-27T00:40:55.503Z,99.90
2022-08-27T00:43:29.000Z,99.90
2022-08-27T00:46:02.723Z,99.90
2022-08-27T00:48:33.195Z,99.90
2022-08-27T00:51:00.359Z,99.90
2022-08-27T00:53:30.048Z,99.90
2022-08-27T00:56:05.100Z,99.90
2022-08-27T00:58:38.841Z,99.90
2022-08-27T01:01:09.553Z,99.90
2022-08-27T01:03:36.663Z,99.90
2022-08-27T01:06:07.061Z,99.90
2022-08-27T01:08:38.913Z,99.90
2022-08-27T01:11:06.908Z,99.90
2022-08-27T01:13:59.200Z,99.90
2022-08-27T01:16:26.658Z,99.90
2022-08-27T01:18:55.913Z,99.90
2022-08-27T01:21:41.361Z,99.90
2022-08-27T01:24:26.859Z,99.90
2022-08-27T01:26:54.958Z,99.90
2022-08-27T01:29:21.932Z,99.90
2022-08-27T01:31:49.215Z,99.90
2022-08-27T01:34:16.517Z,99.90
2022-08-27T01:36:43.488Z,99.90
2022-08-27T01:39:10.455Z,99.90
2022-08-27T01:41:40.701Z,99.90
2022-08-27T01:44:07.718Z,99.90
2022-08-27T01:46:36.492Z,99.90
2022-08-27T01:49:04.075Z,99.90
2022-08-27T01:51:31.030Z,99.90
2022-08-27T01:53:58.154Z,99.90
2022-08-27T01:56:25.998Z,99.90
2022-08-27T01:58:52.917Z,99.90
2022-08-27T02:01:20.134Z,99.90
2022-08-27T02:03:48.426Z,99.90
2022-08-27T02:06:15.456Z,99.90
2022-08-27T02:08:42.786Z,99.90
2022-08-27T02:11:10.344Z,99.90
2022-08-27T02:13:37.523Z,99.90
2022-08-27T02:16:04.594Z,99.90
2022-08-27T02:18:31.822Z,99.90
2022-08-27T02:20:58.784Z,99.90
2022-08-27T02:23:26.305Z,99.90
2022-08-27T02:25:54.047Z,99.90
2022-08-27T02:28:21.043Z,99.90
2022-08-27T02:30:48.034Z,99.90
2022-08-27T02:33:15.513Z,99.90
2022-08-27T02:35:44.308Z,99.90
2022-08-27T02:38:12.976Z,99.90
2022-08-27T02:40:41.151Z,99.90
2022-08-27T02:43:09.004Z,99.90
2022-08-27T02:45:37.491Z,99.90
2022-08-27T02:48:06.229Z,99.90
2022-08-27T02:50:33.689Z,99.90
2022-08-27T02:53:02.473Z,99.90
2022-08-27T02:55:29.851Z,99.90
2022-08-27T02:57:57.331Z,99.90
2022-08-27T03:00:25.791Z,99.90
2022-08-27T03:02:53.090Z,99.90
2022-08-27T03:05:22.888Z,99.90
2022-08-27T03:07:49.852Z,99.90
2022-08-27T03:10:19.991Z,99.90
2022-08-27T03:12:47.372Z,99.90
2022-08-27T03:15:16.812Z,99.90
2022-08-27T03:18:02.532Z,99.90
2022-08-27T03:20:29.947Z,99.90
2022-08-27T03:22:57.162Z,99.90
2022-08-27T03:25:24.233Z,99.90
2022-08-27T03:27:51.436Z,99.90
2022-08-27T03:30:21.182Z,99.90
2022-08-27T03:32:48.301Z,99.90
2022-08-27T03:35:15.522Z,99.90
2022-08-27T03:37:43.427Z,99.90
2022-08-27T03:40:11.209Z,99.90
2022-08-27T03:42:40.908Z,99.90
2022-08-27T03:45:08.969Z,99.90
2022-08-27T03:47:36.905Z,99.90
2022-08-27T03:50:06.025Z,99.90
2022-08-27T03:52:34.481Z,99.90
2022-08-27T03:55:02.304Z,99.90
2022-08-27T03:57:29.223Z,99.90
2022-08-27T03:59:57.028Z,99.90
2022-08-27T04:02:24.110Z,99.90
2022-08-27T04:04:51.095Z,99.90
2022-08-27T04:07:18.340Z,99.90
2022-08-27T04:09:45.324Z,99.90
2022-08-27T04:12:12.266Z,99.90
2022-08-27T04:14:40.022Z,99.90
2022-08-27T04:17:06.943Z,99.90
2022-08-27T04:19:35.210Z,99.90
2022-08-27T04:22:05.491Z,99.90
2022-08-27T04:24:34.546Z,99.90
2022-08-27T04:27:02.666Z,99.90
2022-08-27T04:29:30.046Z,99.90
2022-08-27T04:31:57.629Z,99.90
2022-08-27T04:34:24.844Z,99.90
2022-08-27T04:36:56.159Z,99.90
2022-08-27T04:39:23.531Z,99.90
2022-08-27T04:41:51.792Z,99.90
2022-08-27T04:44:18.932Z,99.90
2022-08-27T04:46:49.212Z,99.90
2022-08-27T04:49:17.499Z,99.90
2022-08-27T04:51:44.891Z,99.90
2022-08-27T04:54:12.991Z,99.90
2022-08-27T04:56:40.872Z,99.90
2022-08-27T04:59:10.112Z,99.90
2022-08-27T05:01:38.832Z,99.90
2022-08-27T05:04:06.469Z,99.90
2022-08-27T05:06:36.632Z,99.90
2022-08-27T05:09:05.138Z,99.90
2022-08-27T05:11:34.589Z,99.90
2022-08-27T05:14:04.136Z,99.90
2022-08-27T05:16:31.810Z,99.90
2022-08-27T05:18:59.904Z,99.90
2022-08-27T05:21:31.806Z,99.90
2022-08-27T05:24:01.190Z,99.90
2022-08-27T05:26:29.619Z,99.90
2022-08-27T05:28:59.778Z,99.90
2022-08-27T05:31:28.494Z,99.90
2022-08-27T05:33:56.550Z,99.90
2022-08-27T05:36:35.480Z,99.90
2022-08-27T05:39:05.874Z,99.90
2022-08-27T05:41:34.522Z,99.90
2022-08-27T05:44:24.012Z,99.90
2022-08-27T05:46:53.347Z,99.90
2022-08-27T05:49:20.318Z,99.90
2022-08-27T05:51:47.303Z,99.90
2022-08-27T05:54:19.385Z,99.90
2022-08-27T05:56:49.384Z,99.90
2022-08-27T05:59:48.913Z,99.90
2022-08-27T06:02:15.983Z,99.90
2022-08-27T06:04:43.137Z,99.90
2022-08-27T06:07:10.953Z,99.90
2022-08-27T06:09:39.693Z,99.90
2022-08-27T06:12:08.070Z,99.90
2022-08-27T06:14:36.623Z,99.90
2022-08-27T06:17:04.203Z,99.90
2022-08-27T06:19:31.423Z,99.90
2022-08-27T06:22:00.842Z,99.90
2022-08-27T06:24:41.932Z,99.90
2022-08-27T06:27:11.653Z,99.90
2022-08-27T06:29:39.638Z,99.90
2022-08-27T06:32:06.887Z,99.90
2022-08-27T06:34:34.279Z,99.90
2022-08-27T06:37:01.420Z,99.90
2022-08-27T06:39:28.576Z,99.90
2022-08-27T06:41:58.574Z,99.90
2022-08-27T06:44:25.856Z,99.90
2022-08-27T06:46:52.935Z,99.90
2022-08-27T06:49:20.453Z,99.90
2022-08-27T06:51:48.740Z,99.90
2022-08-27T06:54:16.998Z,99.90
2022-08-27T06:56:47.252Z,98.80
2022-08-27T06:59:16.841Z,93.80
2022-08-27T07:01:46.812Z,93.20
2022-08-27T07:04:19.735Z,92.90
2022-08-27T07:06:47.109Z,91.00
2022-08-27T07:09:14.297Z,85.60
2022-08-27T07:11:41.536Z,82.90
2022-08-27T07:14:09.091Z,81.50
2022-08-27T07:16:37.624Z,81.60
2022-08-27T07:19:08.055Z,76.50
2022-08-27T07:21:36.056Z,73.50
2022-08-27T07:24:05.069Z,74.40
2022-08-27T07:26:35.064Z,73.30
2022-08-27T07:29:04.168Z,69.60
2022-08-27T07:31:31.336Z,68.40
2022-08-27T07:33:58.337Z,68.10
2022-08-27T07:36:25.537Z,67.30
2022-08-27T07:39:01.347Z,68.00
2022-08-27T07:41:31.793Z,68.20
2022-08-27T07:44:20.394Z,67.40
2022-08-27T07:46:49.478Z,65.90
2022-08-27T07:49:18.083Z,65.60
2022-08-27T07:51:45.609Z,65.80
2022-08-27T07:54:12.796Z,62.00
2022-08-27T07:56:39.780Z,62.10
2022-08-27T07:59:06.878Z,60.30
2022-08-27T08:01:34.092Z,59.70
2022-08-27T08:04:01.406Z,58.40
2022-08-27T08:06:28.590Z,53.80
2022-08-27T08:08:55.786Z,56.40
2022-08-27T08:11:22.743Z,55.60
2022-08-27T08:13:49.868Z,56.30
2022-08-27T08:16:17.208Z,56.00
2022-08-27T08:18:44.211Z,56.00
2022-08-27T08:21:13.335Z,57.00
2022-08-27T08:23:41.219Z,61.40
2022-08-27T08:26:09.904Z,65.40
2022-08-27T08:28:37.131Z,61.70
2022-08-27T08:31:05.489Z,63.00
2022-08-27T08:33:32.728Z,61.50
2022-08-27T08:36:09.895Z,59.50
2022-08-27T08:38:37.894Z,62.90
2022-08-27T08:41:06.919Z,58.60
2022-08-27T08:43:46.954Z,60.50
2022-08-27T08:46:55.577Z,60.50
2022-08-27T08:49:30.871Z,58.60
2022-08-27T08:52:31.476Z,57.70
2022-08-27T08:55:27.406Z,56.80
2022-08-27T08:57:57.712Z,54.20
2022-08-27T09:00:24.666Z,54.50
2022-08-27T09:02:54.897Z,55.00
2022-08-27T09:05:27.341Z,53.80
2022-08-27T09:08:33.356Z,53.00
2022-08-27T09:11:28.084Z,54.10
2022-08-27T09:14:02.082Z,49.70
2022-08-27T09:16:29.687Z,50.60
2022-08-27T09:18:56.793Z,49.00
2022-08-27T09:21:45.076Z,50.40
2022-08-27T09:24:23.277Z,48.40
2022-08-27T09:26:50.219Z,49.80
2022-08-27T09:29:21.155Z,48.80
2022-08-27T09:32:00.991Z,49.10
2022-08-27T09:34:39.178Z,49.00
2022-08-27T09:37:22.470Z,49.10
2022-08-27T09:40:13.612Z,48.90
2022-08-27T09:42:53.500Z,50.30
2022-08-27T09:45:31.325Z,50.80
2022-08-27T09:48:07.402Z,51.70
2022-08-27T09:50:49.376Z,51.80
2022-08-27T09:53:33.846Z,49.20
2022-08-27T09:56:04.090Z,48.20
2022-08-27T09:58:44.859Z,49.90
2022-08-27T10:01:26.581Z,52.10
2022-08-27T10:04:07.511Z,52.60
2022-08-27T10:06:35.300Z,56.50
2022-08-27T10:09:27.042Z,58.40
2022-08-27T10:12:28.379Z,58.50
2022-08-27T10:15:01.012Z,62.00
2022-08-27T10:17:55.778Z,63.90
2022-08-27T10:20:42.900Z,65.20
2022-08-27T10:23:20.693Z,62.60
2022-08-27T10:26:03.717Z,63.40
2022-08-27T10:28:40.890Z,62.20
2022-08-27T10:31:38.989Z,64.40
2022-08-27T10:34:43.887Z,65.50
2022-08-27T10:37:36.624Z,62.90
2022-08-27T10:40:27.959Z,60.50
2022-08-27T10:43:13.435Z,63.10
2022-08-27T10:46:21.829Z,63.90
2022-08-27T10:49:10.788Z,63.90
2022-08-27T10:52:16.563Z,62.90
2022-08-27T10:55:03.261Z,64.90
2022-08-27T10:57:58.974Z,62.20
2022-08-27T11:00:41.700Z,61.00
2022-08-27T11:03:26.164Z,65.60
2022-08-27T11:06:01.989Z,62.00
2022-08-27T11:08:44.292Z,62.90
2022-08-27T11:11:57.455Z,64.30
2022-08-27T11:14:14.175Z,64.20
2022-08-27T11:16:48.183Z,63.50
2022-08-27T11:19:51.132Z,62.50
2022-08-27T11:22:38.789Z,61.60
2022-08-27T11:25:46.673Z,61.20
2022-08-27T11:28:14.838Z,59.70
2022-08-27T11:30:58.499Z,61.40
2022-08-27T11:33:52.482Z,59.90
2022-08-27T11:36:54.070Z,63.80
2022-08-27T11:39:47.462Z,63.80
2022-08-27T11:42:33.323Z,62.30
2022-08-27T11:45:11.131Z,58.70
2022-08-27T11:47:38.915Z,62.90
2022-08-27T11:50:16.441Z,61.80
2022-08-27T11:53:00.013Z,61.80
2022-08-27T11:55:39.055Z,60.00
2022-08-27T11:58:11.435Z,59.10
2022-08-27T12:00:42.758Z,58.40
2022-08-27T12:03:19.193Z,62.20
2022-08-27T12:05:53.826Z,61.80
2022-08-27T12:08:24.163Z,57.00
2022-08-27T12:11:09.043Z,58.60
2022-08-27T12:14:04.425Z,62.90
2022-08-27T12:16:44.047Z,61.90
2022-08-27T12:19:34.318Z,61.40
2022-08-27T12:22:30.061Z,60.70
2022-08-27T12:24:59.239Z,59.30
2022-08-27T12:27:35.398Z,59.50
2022-08-27T12:30:22.461Z,58.60
2022-08-27T12:32:52.904Z,60.30
2022-08-27T12:35:33.373Z,62.90
2022-08-27T12:38:19.171Z,57.70
2022-08-27T12:41:00.671Z,58.40
2022-08-27T12:43:34.099Z,60.30
2022-08-27T12:46:11.813Z,56.10
2022-08-27T12:48:46.981Z,58.10
2022-08-27T12:51:23.547Z,60.80
2022-08-27T12:53:58.128Z,56.40
2022-08-27T12:56:46.868Z,57.70
2022-08-27T12:59:17.617Z,56.50
2022-08-27T13:01:55.059Z,60.40
2022-08-27T13:04:27.970Z,61.70
2022-08-27T13:06:59.706Z,61.40
2022-08-27T13:09:34.317Z,61.20
2022-08-27T13:12:06.256Z,59.70
2022-08-27T13:14:40.093Z,63.60
2022-08-27T13:17:10.458Z,62.90
2022-08-27T13:19:56.391Z,64.50
2022-08-27T13:22:29.735Z,64.00
2022-08-27T13:25:03.680Z,64.40
2022-08-27T13:27:37.618Z,63.90
2022-08-27T13:30:11.931Z,68.00
2022-08-27T13:32:56.854Z,66.70
2022-08-27T13:35:25.619Z,65.00
2022-08-27T13:37:57.916Z,64.80
2022-08-27T13:40:50.509Z,67.40
2022-08-27T13:43:19.499Z,65.90
2022-08-27T13:45:51.712Z,68.50
2022-08-27T13:48:24.256Z,66.60
2022-08-27T13:50:55.655Z,67.20
2022-08-27T13:53:46.434Z,65.40
2022-08-27T13:56:29.164Z,62.70
2022-08-27T13:59:13.232Z,63.50
2022-08-27T14:01:57.757Z,66.70
2022-08-27T14:04:38.137Z,70.00
2022-08-27T14:07:24.405Z,68.40
2022-08-27T14:09:56.592Z,67.50
2022-08-27T14:12:41.863Z,67.70
2022-08-27T14:15:41.764Z,62.70
2022-08-27T14:18:48.135Z,65.90
2022-08-27T14:21:15.032Z,65.20
2022-08-27T14:23:43.120Z,67.30
2022-08-27T14:26:11.182Z,68.50
2022-08-27T14:28:39.286Z,68.50
2022-08-27T14:31:08.685Z,67.30
2022-08-27T14:33:36.277Z,67.50
2022-08-27T14:36:04.672Z,67.80
2022-08-27T14:38:35.044Z,65.30
2022-08-27T14:41:02.518Z,65.40
2022-08-27T14:43:34.747Z,64.40
2022-08-27T14:46:02.986Z,60.20
